HOURLY OBS INDEX

069

South Coast

BEGA AWS

Site: 069139
Alt: 41.0m
7km E of BEGA


  Time     Wind        Temp  DP   Baro     Rain since   Rain past  Vis(m), Cloud(base in m), Weather
  local        km/h                         9am  last   hr   10m    
Sat 00:00    W 15/ 22  11.0 -1.1   999.6    0.2   0.0   0.0   0.0   ----- 
Sat 00:30    W 13/ 26  10.7 -1.0   999.5    0.2   0.0   0.0   0.0   ----- 
Sat 01:00  WSW 26/ 35  10.9 -0.9   999.8    0.2   0.0   0.0   0.0   ----- 
Sat 01:15    W 28/ 46  10.9 -0.5   999.9    0.2   0.0  ----   0.0   ----- 
Sat 01:30  WSW 22/ 35  10.6 -0.2   999.8    0.2   0.0   0.0   0.0   ----- 
Sat 01:54  WSW 43/ 59  10.6  0.1   999.8    0.2   0.0  ----   0.0   ----- 
Sat 01:55  WSW 39/ 59  10.6  0.1  1000.0    0.2   0.0  ----   0.0   ----- 
Sat 02:00  WSW 33/ 59  10.5  0.0  1000.0    0.2   0.0   0.0   0.0   ----- 
Sat 02:30  WSW 30/ 48  10.2  0.0   999.8    0.2   0.0   0.0   0.0   ----- 
Sat 03:00  WSW 20/ 35  10.2 -0.3  1000.0    0.2   0.0   0.0   0.0   ----- 
Sat 03:30    W 19/ 28  10.4 -1.0  1000.1    0.2   0.0   0.0   0.0   ----- 
Sat 04:00  WSW 28/ 43  10.5 -1.9  1000.3    0.2   0.0   0.0   0.0   ----- 
Sat 04:27  WSW 28/ 46  10.8 -3.3  1000.6    0.2   0.0  ----   0.0   ----- 
Sat 04:30  WSW 30/ 46  10.8 -3.3  1000.7    0.2   0.0   0.0   0.0   ----- 
Sat 04:32  WSW 28/ 46  10.8 -3.3  1000.9    0.2   0.0  ----   0.0   ----- 
Sat 05:00  WSW 22/ 33  10.6 -3.8  1001.2    0.2   0.0   0.0   0.0   ----- 
Sat 05:14  WSW 28/ 46  10.9 -3.9  1001.1    0.2   0.0   0.0   0.0   ----- 
Sat 05:30  WSW 28/ 45  10.9 -3.9  1001.4    0.2   0.0   0.0   0.0   ----- 
Sat 05:35  WSW 28/ 46  10.9 -4.3  1001.4    0.2   0.0   0.0   0.0   ----- 

BRAIDWOOD RACECOURSE AWS

Site: 069132
Alt: 665.2m
49km NW of BATEMANS BAY


  Time     Wind        Temp  DP   Baro     Rain since   Rain past  Vis(m), Cloud(base in m), Weather
  local        km/h                         9am  last   hr   10m    
Sat 00:00   NW 13/ 22   3.3 -0.2  1002.4    4.4   0.0   0.0   0.0   -----|OC 660 
Sat 00:30  NNW  9/ 24   3.3 -0.3  1002.5    4.4   0.0   0.0   0.0   -----|OC 600 OC 720 
Sat 01:00    N  6/ 13   3.3 -0.2  1002.2    4.4   0.0   0.0   0.0   -----|OC 600 
Sat 01:30  NNE  6/ 11   3.3 -0.3  1002.2    4.4   0.0   0.0   0.0   -----|OC 600 
Sat 02:00    N 11/ 22   3.0 -0.6  1001.9    4.4   0.0   0.0   0.0   -----|BR 660 
Sat 02:30  NNW  7/ 17   2.7 -0.7  1001.9    4.4   0.0   0.0   0.0   -----|SC 720 
Sat 03:00  NNE  7/ 15   3.2 -0.8  1001.9    4.6   0.2   0.2   0.0   -----|BR 780 BR 930 
Sat 03:30   NE 13/ 26   3.7 -1.3  1002.2    4.6   0.0   0.2   0.0   -----|BR 780 OC 930 
Sat 04:00    N  9/ 22   3.4 -1.7  1002.5    4.6   0.0   0.0   0.0   -----|BR 840 
Sat 04:30    N  7/ 19   2.9 -2.2  1003.1    4.6   0.0   0.0   0.0   -----|SC 930 BR1110 BR1290 
Sat 05:00  NNW 11/ 28   2.7 -3.4  1003.1    4.6   0.0   0.0   0.0   ----- 
Sat 05:30   NW 19/ 35   2.8 -4.0  1003.7    4.6   0.0   0.0   0.0   ----- 

GREEN CAPE AWS

Site: 069137
Alt: 19.4m
66km SSE of BEGA


  Time     Wind        Temp  DP   Baro     Rain since   Rain past  Vis(m), Cloud(base in m), Weather
  local        km/h                         9am  last   hr   10m    
Sat 00:00    W 35/ 50   9.6  4.8   998.7    1.6   0.0   0.0   0.0   ----- 
Sat 00:30  WSW 43/ 63   9.9  5.5   998.5    1.6   0.0   0.0   0.0   ----- 
Sat 01:00    W 52/ 69   9.6  5.6   998.5    1.6   0.0   0.0   0.0   ----- 
Sat 01:25    W 50/ 72   9.6  5.6   998.3    1.6   0.0  ----   0.0   ----- 
Sat 01:30    W 54/ 72   9.5  5.3   998.3    1.6   0.0   0.0   0.0   ----- 
Sat 02:00  WSW 56/ 69   9.8  5.8   998.0    1.6   0.0   0.0   0.0   ----- 
Sat 02:30  WSW 56/ 74  10.1  5.5   997.8    1.6   0.0   0.0   0.0   ----- 
Sat 02:38  WSW 54/ 74  10.1  5.5   998.0    1.6   0.0  ----   0.0   ----- 
Sat 03:00  WSW 56/ 74  10.1  5.1   997.8    1.6   0.0   0.0   0.0   ----- 
Sat 03:30  WSW 59/ 74  10.1  4.5   997.8    1.6   0.0   0.0   0.0   ----- 
Sat 03:34  WSW 61/ 82  10.1  4.3   997.7    1.6   0.0  ----   0.0   ----- 
Sat 04:00  WSW 56/ 74  10.2  4.1   998.3    1.6   0.0   0.0   0.0   ----- 
Sat 04:14    W 59/ 80  10.2  3.7   998.3    1.6   0.0  ----   0.0   ----- 
Sat 04:30    W 58/ 78  10.2  3.5   998.5    1.6   0.0   0.0   0.0   ----- 
Sat 05:00    W 56/ 70  10.4  3.7   999.1    1.6   0.0   0.0   0.0   ----- 
Sat 05:23    W 54/ 72  10.4  3.0   999.4    1.6   0.0   0.0   0.0   ----- 
Sat 05:30    W 54/ 72  10.5  3.8   999.6    1.6   0.0   0.0   0.0   ----- 

MERIMBULA AIRPORT AWS

Site: 069147
Alt: 1.5m
25km S of BEGA


  Time     Wind        Temp  DP   Baro     Rain since   Rain past  Vis(m), Cloud(base in m), Weather
  local        km/h                         9am  last   hr   10m    
Sat 00:00  WNW 17/ 24  10.2  3.0   999.4    0.0   0.0   0.0   0.0   -----|OC3300 
Sat 00:30    W 17/ 26  10.3  2.4   999.5    0.0   0.0   0.0   0.0   -----|OC3600 
Sat 01:00    W 17/ 26  10.5  2.1   999.6    0.0   0.0   0.0   0.0   -----|OC3600 
Sat 01:30    W 24/ 39  10.4  2.0   999.6    0.0   0.0   0.0   0.0   ----- 
Sat 01:43    W 28/ 48  10.4  2.0   999.7    0.0   0.0  ----   0.0   -----|SC1890 
Sat 02:00    W 20/ 33  10.1  2.0   999.7    0.0   0.0   0.0   0.0   -----|SC1470 SC1890 
Sat 02:30    W 20/ 30   9.5  2.1   999.5    0.0   0.0   0.0   0.0   -----|SC1560 
Sat 03:00    W 24/ 46   9.9  1.8   999.6    0.0   0.0   0.0   0.0   ----- 
Sat 03:30    W 28/ 43  10.1  1.0   999.6    0.0   0.0   0.0   0.0   ----- 
Sat 04:00    W 22/ 37  10.1  0.7   999.9    0.0   0.0   0.0   0.0   ----- 
Sat 04:30    W 24/ 41  10.1 -0.1  1000.1    0.0   0.0   0.0   0.0   ----- 
Sat 05:00    W 20/ 33  10.2 -0.6  1000.8    0.0   0.0   0.0   0.0   ----- 
Sat 05:30    W 22/ 35  10.2 -0.9  1001.1    0.0   0.0   0.0   0.0   -----|SC2790 

MONTAGUE ISLAND LIGHTHOUSE

Site: 069017
Alt: 52.0m
56km NNE of BEGA


  Time     Wind        Temp  DP   Baro     Rain since   Rain past  Vis(m), Cloud(base in m), Weather
  local        km/h                         9am  last   hr   10m    
Sat 00:00    W 33/ 43  11.3  0.1   999.6    1.4   0.0   0.0   0.0   ----- 
Sat 00:30    W 30/ 39  11.2  1.2   999.7    1.4   0.0   0.0   0.0   ----- 
Sat 01:00    W 32/ 43  11.1  0.8   999.8    1.4   0.0   0.0   0.0   ----- 
Sat 01:30    W 28/ 33  10.7  0.7   999.8    1.4   0.0   0.0   0.0   ----- 
Sat 02:00    W 28/ 35  10.8  0.8   999.8    1.4   0.0   0.0   0.0   ----- 
Sat 02:30    W 30/ 37  10.8  0.8   999.8    1.4   0.0   0.0   0.0   ----- 
Sat 03:00    W 26/ 33  10.8  0.5   999.8    1.4   0.0   0.0   0.0   ----- 
Sat 03:30    W 28/ 33  11.0  0.1  1000.0    1.4   0.0   0.0   0.0   ----- 
Sat 04:00    W 26/ 33  11.0 -0.8  1000.3    1.4   0.0   0.0   0.0   ----- 
Sat 04:30    W 30/ 37  11.1 -0.4  1000.7    1.4   0.0   0.0   0.0   ----- 
Sat 05:00    W 33/ 41  11.1 -0.1  1001.0    1.4   0.0   0.0   0.0   ----- 
Sat 05:30    W 37/ 48  11.2 -1.2  1001.4    1.4   0.0   0.0   0.0   ----- 

MORUYA AIRPORT AWS

Site: 069148
Alt: 4.0m
21km S of BATEMANS BAY


  Time     Wind        Temp  DP   Baro     Rain since   Rain past  Vis(m), Cloud(base in m), Weather
  local        km/h                         9am  last   hr   10m    
Sat 00:00  NNW 11/ 19   8.8  0.0  1001.0    0.0   0.0   0.0   0.0   10000 
Sat 00:30   NW 11/ 20   9.0 -0.1  1000.9    0.0   0.0   0.0   0.0   10000 
Sat 01:00   NW 13/ 20   9.4 -0.2  1000.7    0.0   0.0   0.0   0.0   10000 
Sat 01:30   NW 11/ 19   9.1 -0.2  1000.9    0.0   0.0   0.0   0.0   10000|SC2310 
Sat 02:00   NW 11/ 15   8.3 -0.2  1000.6    0.0   0.0   0.0   0.0   10000 
Sat 02:30   NW  9/ 17   8.3 -0.2  1000.6    0.0   0.0   0.0   0.0   10000|SC2160 
Sat 03:00  WNW 11/ 17   8.4 -0.4  1000.9    0.0   0.0   0.0   0.0   10000 
Sat 03:30  WNW 11/ 17   8.1 -0.6  1001.1    0.0   0.0   0.0   0.0   10000 
Sat 04:00  WNW 11/ 17   8.3 -1.0  1001.3    0.0   0.0   0.0   0.0   10000 
Sat 04:30  WNW  7/ 11   7.3 -0.4  1001.7    0.0   0.0   0.0   0.0   10000 
Sat 05:00   NW  7/ 11   6.4 -1.2  1002.3    0.0   0.0   0.0   0.0   10000 
Sat 05:30  NNW  7/ 11   4.9 -0.7  1002.8    0.0   0.0   0.0   0.0   10000 

NERRIGA AWS

Site: 069128
Alt: 622.0m
km of


  Time     Wind        Temp  DP   Baro     Rain since   Rain past  Vis(m), Cloud(base in m), Weather
  local        km/h                         9am  last   hr   10m    
Sat 00:00  WNW 30/ 48   3.6  1.3  1002.9    4.4   0.0   0.0   0.0   ----- 
Sat 00:07  WNW 32/ 50   3.5  1.2  1002.6    4.4   0.0  ----   0.0   ----- 
Sat 00:30  WNW 32/ 50   3.3  1.2  1002.8    4.4   0.0   0.0   0.0   ----- 
Sat 01:00  WNW 32/ 46   3.3  1.3  1002.6    4.4   0.0   0.0   0.0   ----- 
Sat 01:09  WNW 32/ 54   3.3  1.5  1002.4    4.4   0.0  ----   0.0   ----- 
Sat 01:30  WNW 35/ 50   3.7  1.3  1002.7    4.4   0.0   0.0   0.0   ----- 
Sat 01:41  WNW 41/ 61   3.8  0.8  1002.6    4.4   0.0  ----   0.0   ----- 
Sat 02:00  WNW 37/ 56   3.7  0.8  1002.3    4.4   0.0   0.0   0.0   ----- 
Sat 02:30  WNW 41/ 58   3.4  0.5  1002.2    4.4   0.0   0.0   0.0   ----- 
Sat 02:44  WNW 37/ 56   3.3  0.0  1002.6    4.4   0.0  ----   0.0   ----- 
Sat 03:00  WNW 35/ 54   3.3  0.0  1002.7    4.4   0.0   0.0   0.0   ----- 
Sat 03:30  WNW 41/ 58   3.3 -0.2  1002.9    4.4   0.0   0.0   0.0   ----- 
Sat 03:37  WNW 37/ 58   3.2 -0.4  1003.4    4.4   0.0  ----   0.0   ----- 
Sat 04:00  WNW 41/ 58   3.0 -0.5  1003.4    4.4   0.0   0.0   0.0   ----- 
Sat 04:07  WNW 41/ 61   3.1 -0.7  1003.4    4.4   0.0  ----   0.0   ----- 
Sat 04:30  WNW 37/ 59   3.1 -1.4  1003.9    4.4   0.0   0.0   0.0   ----- 
Sat 05:00  WNW 30/ 50   2.9 -1.8  1005.1    4.4   0.0   0.0   0.0   ----- 
Sat 05:30  WNW 39/ 63   2.9 -1.8  1004.8    4.4   0.0   0.0   0.0   ----- 

ULLADULLA AWS

Site: 069138
Alt: 35.7m
47km NE of BATEMANS BAY


  Time     Wind        Temp  DP   Baro     Rain since   Rain past  Vis(m), Cloud(base in m), Weather
  local        km/h                         9am  last   hr   10m    
Sat 00:00    W 24/ 48   9.3  0.5  1001.3    0.0   0.0   0.0   0.0   ----- 
Sat 00:30    W 15/ 39   8.9  0.6  1001.7    0.0   0.0   0.0   0.0   ----- 
Sat 01:00    W 19/ 39   9.0  0.7  1002.2    0.0   0.0   0.0   0.0   ----- 
Sat 01:30    W 20/ 39   8.8  0.8  1002.0    0.0   0.0   0.0   0.0   ----- 
Sat 02:00  WNW 19/ 37   8.8  0.5  1001.7    0.0   0.0   0.0   0.0   ----- 
Sat 02:30    W 13/ 32   8.9  0.6  1001.8    0.0   0.0   0.0   0.0   ----- 
Sat 03:00    W 13/ 30   9.0  0.5  1001.8    0.0   0.0   0.0   0.0   ----- 
Sat 03:30    W 15/ 32   9.3  0.2  1002.1    0.0   0.0   0.0   0.0   ----- 
Sat 04:00    W 15/ 39   9.3  0.0  1002.7    0.0   0.0   0.0   0.0   ----- 
Sat 04:30    W 17/ 32   9.3  0.0  1003.2    0.0   0.0   0.0   0.0   ----- 
Sat 05:00    W 15/ 35   9.2 -0.7  1003.3    0.0   0.0   0.0   0.0   ----- 
Sat 05:30    W 13/ 30   9.3 -2.0  1003.9    0.0   0.0   0.0   0.0   -----